Time;durP1;ratioP1;P1;durP2;ratioP2;P2;SDS_P1;SDS_P2;PMS_P1;PMS_P2;Temp;Humidity;BMP_temperature;BMP_pressure;BME280_temperature;BME280_humidity;BME280_pressure;Samples;Min_cycle;Max_cycle;Signal;HPM_P1;HPM_P2
2023/12/16 00:00:43;;;;;;;82.60;26.63;;;;;;;1.69;100.00;101691.78;4188639;28;21045;-70
2023/12/16 00:03:10;;;;;;;83.07;26.37;;;;;;;1.78;100.00;101690.56;4177946;28;21115;-72
2023/12/16 00:05:37;;;;;;;84.90;26.80;;;;;;;1.71;100.00;101697.06;4197980;28;21400;-70
2023/12/16 00:08:04;;;;;;;86.83;28.03;;;;;;;1.67;100.00;101690.13;4191105;28;20243;-70
2023/12/16 00:10:31;;;;;;;85.30;27.23;;;;;;;1.67;100.00;101692.78;4160808;28;20698;-71
2023/12/16 00:12:58;;;;;;;93.80;26.77;;;;;;;1.70;100.00;101696.22;4182904;28;26447;-70
2023/12/16 00:15:25;;;;;;;87.30;27.27;;;;;;;1.76;100.00;101699.56;4184307;28;21234;-69
2023/12/16 00:17:52;;;;;;;83.10;25.87;;;;;;;1.83;100.00;101704.63;4178396;28;20663;-69
2023/12/16 00:20:19;;;;;;;87.00;26.23;;;;;;;1.68;100.00;101691.88;4198754;28;21089;-70
2023/12/16 00:22:45;;;;;;;81.43;26.07;;;;;;;1.73;100.00;101684.53;4181853;28;22256;-66
2023/12/16 00:25:12;;;;;;;84.77;28.13;;;;;;;1.81;100.00;101682.44;4186245;28;20249;-71
2023/12/16 00:27:39;;;;;;;97.60;30.67;;;;;;;1.73;100.00;101681.88;4165136;28;20447;-72
2023/12/16 00:30:08;;;;;;;93.20;30.00;;;;;;;1.73;100.00;101681.88;4195843;28;20317;-69
2023/12/16 00:32:37;;;;;;;102.73;31.83;;;;;;;1.67;100.00;101677.63;4176632;28;22847;-73
2023/12/16 00:35:05;;;;;;;109.13;33.27;;;;;;;1.65;100.00;101690.19;4181460;28;20239;-71
2023/12/16 00:37:32;;;;;;;109.37;34.73;;;;;;;1.64;100.00;101687.56;4189688;28;22210;-73
2023/12/16 00:39:58;;;;;;;126.57;36.17;;;;;;;1.57;100.00;101700.28;4187057;28;22842;-72
2023/12/16 00:42:25;;;;;;;124.17;35.80;;;;;;;1.59;100.00;101690.41;4180680;28;23587;-72
2023/12/16 00:44:52;;;;;;;137.67;38.00;;;;;;;1.55;100.00;101699.47;4191126;28;20381;-71
2023/12/16 00:47:18;;;;;;;137.73;37.90;;;;;;;1.53;100.00;101711.97;4212435;28;20234;-70
2023/12/16 00:49:45;;;;;;;163.07;39.77;;;;;;;1.54;100.00;101703.06;4187315;28;21090;-72
2023/12/16 00:52:12;;;;;;;138.13;37.60;;;;;;;1.58;100.00;101707.38;4181007;28;20279;-73
2023/12/16 00:54:39;;;;;;;146.60;38.80;;;;;;;1.62;100.00;101711.66;4188423;28;23475;-70
2023/12/16 00:57:05;;;;;;;149.57;38.60;;;;;;;1.64;100.00;101707.13;4192802;28;20224;-69
2023/12/16 00:59:32;;;;;;;149.90;38.50;;;;;;;1.64;100.00;101708.91;4183146;28;20233;-71
2023/12/16 01:01:59;;;;;;;152.30;39.00;;;;;;;1.54;100.00;101708.41;4177741;28;20230;-73
2023/12/16 01:04:26;;;;;;;173.30;40.80;;;;;;;1.67;100.00;101707.00;4189171;28;21744;-70
2023/12/16 01:06:53;;;;;;;155.37;40.47;;;;;;;1.71;100.00;101729.09;4184887;28;20786;-71
2023/12/16 01:09:19;;;;;;;146.67;39.57;;;;;;;1.78;100.00;101730.59;4188388;28;21152;-72
2023/12/16 01:11:46;;;;;;;175.07;41.57;;;;;;;1.63;100.00;101726.75;4182952;28;20368;-71
2023/12/16 01:14:13;;;;;;;182.40;41.07;;;;;;;1.63;100.00;101720.50;4197823;28;20245;-70
2023/12/16 01:16:39;;;;;;;161.80;42.10;;;;;;;1.64;100.00;101712.47;4183806;28;20233;-71
2023/12/16 01:19:06;;;;;;;197.07;42.53;;;;;;;1.62;100.00;101706.31;4185930;28;22969;-70
2023/12/16 01:21:43;;;;;;;162.97;41.37;;;;;;;1.64;100.00;101716.91;4182496;28;22046;-71
2023/12/16 01:24:10;;;;;;;179.03;40.50;;;;;;;1.63;100.00;101710.72;4180496;28;22672;-69
2023/12/16 01:26:36;;;;;;;168.87;40.73;;;;;;;1.67;100.00;101711.47;4195638;28;20240;-70
2023/12/16 01:29:03;;;;;;;178.23;39.37;;;;;;;1.67;100.00;101707.00;4190545;28;22692;-69
2023/12/16 01:31:30;;;;;;;181.73;40.73;;;;;;;1.64;100.00;101701.78;4176752;28;20237;-71
2023/12/16 01:33:58;;;;;;;197.90;41.57;;;;;;;1.62;100.00;101694.78;4191516;28;20280;-71
2023/12/16 01:36:25;;;;;;;186.87;41.77;;;;;;;1.65;100.00;101692.84;4186796;28;20226;-72
2023/12/16 01:38:52;;;;;;;191.53;41.13;;;;;;;1.72;100.00;101698.81;4183157;28;20237;-72
2023/12/16 01:41:18;;;;;;;193.50;42.57;;;;;;;1.67;100.00;101703.47;4182882;28;21799;-72
2023/12/16 01:43:45;;;;;;;198.57;41.80;;;;;;;1.65;100.00;101699.97;4183786;28;24892;-72
2023/12/16 01:46:13;;;;;;;209.77;43.20;;;;;;;1.69;100.00;101710.47;4186731;28;20238;-69
2023/12/16 01:48:41;;;;;;;177.80;39.83;;;;;;;1.70;100.00;101711.38;4180426;28;20319;-72
2023/12/16 01:51:09;;;;;;;169.57;39.17;;;;;;;1.71;100.00;101707.75;4183520;28;20242;-73
2023/12/16 01:53:37;;;;;;;189.03;42.13;;;;;;;1.66;100.00;101723.06;4188322;28;20341;-72
2023/12/16 01:56:06;;;;;;;181.60;39.30;;;;;;;1.65;100.00;101713.31;4185928;28;20233;-72
2023/12/16 01:58:33;;;;;;;186.17;42.50;;;;;;;1.70;100.00;101714.03;4193366;28;20260;-70
2023/12/16 02:01:00;;;;;;;199.77;41.30;;;;;;;1.67;100.00;101703.47;4182757;28;20239;-69
2023/12/16 02:03:28;;;;;;;182.33;36.37;;;;;;;1.76;100.00;101710.25;4186372;28;21753;-70
2023/12/16 02:05:57;;;;;;;202.90;43.30;;;;;;;1.73;100.00;101709.44;4187040;28;20243;-70
2023/12/16 02:08:24;;;;;;;188.10;39.93;;;;;;;1.75;100.00;101712.06;4191020;28;20240;-71
2023/12/16 02:10:51;;;;;;;216.13;40.60;;;;;;;1.69;100.00;101705.13;4201646;28;20241;-71
2023/12/16 02:13:23;;;;;;;193.33;41.13;;;;;;;1.71;100.00;101710.41;4186219;28;20272;-70
2023/12/16 02:15:50;;;;;;;205.00;43.23;;;;;;;1.72;100.00;101709.50;4195888;28;25936;-69
2023/12/16 02:18:17;;;;;;;211.60;40.90;;;;;;;1.79;100.00;101716.34;4184580;28;21653;-68
2023/12/16 02:20:46;;;;;;;195.73;40.13;;;;;;;1.86;100.00;101715.16;4180578;28;20275;-70
2023/12/16 02:23:16;;;;;;;214.90;41.33;;;;;;;1.77;100.00;101723.56;4191842;28;22035;-69
2023/12/16 02:25:44;;;;;;;192.13;37.83;;;;;;;1.84;100.00;101729.50;4193100;28;20320;-71
2023/12/16 02:28:10;;;;;;;186.10;37.80;;;;;;;1.93;100.00;101741.66;4170854;28;20241;-69
2023/12/16 02:30:37;;;;;;;189.37;40.20;;;;;;;1.83;100.00;101749.13;4184317;28;20225;-70
2023/12/16 02:33:04;;;;;;;176.80;37.73;;;;;;;1.87;100.00;101750.75;4188306;28;20672;-70
2023/12/16 02:35:31;;;;;;;180.07;39.80;;;;;;;1.86;100.00;101749.88;4188271;28;20234;-70
2023/12/16 02:37:58;;;;;;;197.83;40.63;;;;;;;1.82;100.00;101745.59;4179406;28;20300;-70
2023/12/16 02:40:24;;;;;;;192.70;37.07;;;;;;;1.78;100.00;101746.63;4188642;28;20235;-70
2023/12/16 02:42:51;;;;;;;200.37;39.20;;;;;;;1.80;100.00;101749.25;4183102;28;21629;-70
2023/12/16 02:45:19;;;;;;;201.10;39.10;;;;;;;1.82;100.00;101742.03;4175354;28;20300;-69
2023/12/16 02:47:45;;;;;;;187.30;37.63;;;;;;;1.79;100.00;101748.38;4188028;28;20418;-70
2023/12/16 02:50:12;;;;;;;200.37;40.67;;;;;;;1.81;100.00;101751.00;4186540;28;20594;-68
2023/12/16 02:52:39;;;;;;;197.07;38.87;;;;;;;1.84;100.00;101743.75;4180514;28;20287;-70
2023/12/16 02:55:06;;;;;;;198.70;38.50;;;;;;;1.82;100.00;101750.94;4179761;28;20603;-68
2023/12/16 02:57:33;;;;;;;189.70;38.73;;;;;;;1.83;100.00;101749.13;4199983;28;21259;-69
2023/12/16 03:00:00;;;;;;;181.67;38.80;;;;;;;1.76;100.00;101740.50;4182536;28;20241;-70
2023/12/16 03:02:26;;;;;;;213.47;41.53;;;;;;;1.78;100.00;101735.94;4191071;28;20233;-69
2023/12/16 03:04:53;;;;;;;199.37;39.20;;;;;;;1.83;100.00;101733.09;4181855;28;20244;-69
2023/12/16 03:07:19;;;;;;;214.33;40.67;;;;;;;1.80;100.00;101719.88;4183103;28;24761;-70
2023/12/16 03:09:46;;;;;;;203.57;38.97;;;;;;;1.74;100.00;101708.50;4182996;28;21391;-69
2023/12/16 03:12:14;;;;;;;189.33;40.43;;;;;;;1.80;100.00;101717.22;4185523;28;21170;-71
2023/12/16 03:14:41;;;;;;;219.63;41.93;;;;;;;1.80;100.00;101709.22;4184795;28;20237;-67
2023/12/16 03:17:12;;;;;;;212.33;40.73;;;;;;;1.85;100.00;101699.22;4184150;28;20229;-68
2023/12/16 03:19:38;;;;;;;203.90;40.27;;;;;;;1.80;100.00;101701.19;4185574;28;21271;-69
2023/12/16 03:22:05;;;;;;;211.17;44.23;;;;;;;1.84;100.00;101708.16;4191444;28;20856;-68
2023/12/16 03:24:32;;;;;;;206.93;41.27;;;;;;;1.86;100.00;101714.31;4186519;28;20257;-69
2023/12/16 03:26:59;;;;;;;226.00;41.77;;;;;;;1.89;100.00;101719.50;4182739;28;20236;-68
2023/12/16 03:29:26;;;;;;;236.57;43.53;;;;;;;1.84;100.00;101724.16;4186802;28;20307;-69
2023/12/16 03:31:53;;;;;;;224.17;40.30;;;;;;;1.89;100.00;101730.19;4185162;28;20242;-66
2023/12/16 03:34:20;;;;;;;216.67;42.73;;;;;;;1.94;100.00;101740.69;4175650;28;20237;-68
2023/12/16 03:36:46;;;;;;;221.97;40.83;;;;;;;1.89;100.00;101733.75;4168126;28;20344;-68
2023/12/16 03:39:13;;;;;;;236.17;42.87;;;;;;;1.90;100.00;101732.81;4185419;28;20236;-69
2023/12/16 03:41:40;;;;;;;233.03;42.53;;;;;;;1.94;100.00;101722.88;4180132;28;20237;-67
2023/12/16 03:44:06;;;;;;;193.87;39.13;;;;;;;1.94;100.00;101722.00;4174536;28;20230;-68
2023/12/16 03:46:34;;;;;;;194.17;38.67;;;;;;;1.98;100.00;101710.28;4179981;28;20239;-66
2023/12/16 03:49:00;;;;;;;229.80;40.83;;;;;;;1.92;100.00;101719.41;4181457;28;25651;-67
2023/12/16 03:51:27;;;;;;;210.40;38.57;;;;;;;1.90;100.00;101714.13;4172504;28;21156;-69
2023/12/16 03:53:54;;;;;;;201.10;37.40;;;;;;;1.97;100.00;101719.22;4175497;28;20244;-66
2023/12/16 03:56:21;;;;;;;187.30;36.70;;;;;;;2.03;100.00;101727.88;4185102;28;20297;-68
2023/12/16 03:58:47;;;;;;;210.90;39.30;;;;;;;2.05;100.00;101736.69;4192050;28;20249;-68
2023/12/16 04:01:14;;;;;;;238.10;40.67;;;;;;;1.98;100.00;101739.66;4189302;28;20358;-68
2023/12/16 04:03:41;;;;;;;205.20;39.10;;;;;;;2.02;100.00;101739.50;4181434;28;20304;-70
2023/12/16 04:06:12;;;;;;;218.30;40.23;;;;;;;2.06;100.00;101732.22;4192472;28;21593;-71
2023/12/16 04:08:39;;;;;;;217.60;40.13;;;;;;;2.07;100.00;101731.31;4191477;28;20333;-68
2023/12/16 04:11:07;;;;;;;257.57;41.97;;;;;;;2.07;100.00;101731.31;4182105;28;24143;-69
2023/12/16 04:13:34;;;;;;;220.03;39.00;;;;;;;2.08;100.00;101722.31;4180741;28;20302;-70
2023/12/16 04:16:03;;;;;;;203.20;39.10;;;;;;;2.16;100.00;101733.59;4190210;28;20611;-72
2023/12/16 04:18:31;;;;;;;254.90;41.53;;;;;;;2.14;100.00;101731.91;4196072;28;20229;-69
2023/12/16 04:20:59;;;;;;;196.60;38.27;;;;;;;2.17;100.00;101726.47;4184152;28;20279;-68
2023/12/16 04:23:26;;;;;;;260.13;42.33;;;;;;;2.10;100.00;101720.47;4192158;28;25165;-67
2023/12/16 04:25:53;;;;;;;226.57;37.23;;;;;;;2.13;100.00;101728.38;4188386;28;20234;-70
2023/12/16 04:28:19;;;;;;;209.47;39.23;;;;;;;2.18;100.00;101730.88;4203960;28;23252;-69
2023/12/16 04:30:46;;;;;;;221.70;38.83;;;;;;;2.21;100.00;101734.28;4180641;28;20237;-71
2023/12/16 04:33:13;;;;;;;198.37;40.17;;;;;;;2.16;100.00;101730.91;4182772;28;21319;-68
2023/12/16 04:35:40;;;;;;;273.47;42.27;;;;;;;2.17;100.00;101738.00;4186722;28;20305;-70
2023/12/16 04:38:06;;;;;;;205.90;36.23;;;;;;;2.22;100.00;101745.84;4177433;28;23010;-70
2023/12/16 04:40:34;;;;;;;213.27;38.63;;;;;;;2.27;100.00;101746.50;4183621;28;20277;-67
2023/12/16 04:43:00;;;;;;;219.73;37.60;;;;;;;2.23;100.00;101755.59;4184029;28;20245;-69
2023/12/16 04:45:27;;;;;;;228.87;38.47;;;;;;;2.22;100.00;101768.09;4186760;28;20240;-67
2023/12/16 04:47:54;;;;;;;206.07;35.87;;;;;;;2.25;100.00;101761.75;4192582;28;20237;-68
2023/12/16 04:50:21;;;;;;;192.73;36.80;;;;;;;2.31;100.00;101765.97;4185049;28;20262;-68
2023/12/16 04:52:48;;;;;;;193.43;37.30;;;;;;;2.29;100.00;101763.34;4184264;28;21763;-70
2023/12/16 04:55:15;;;;;;;210.27;37.43;;;;;;;2.25;100.00;101767.09;4190481;28;20321;-67
2023/12/16 04:57:42;;;;;;;233.17;38.60;;;;;;;2.22;100.00;101762.75;4189387;28;20243;-68
2023/12/16 05:00:09;;;;;;;180.93;34.50;;;;;;;2.35;100.00;101776.47;4185415;28;21710;-70
2023/12/16 05:02:36;;;;;;;190.57;36.03;;;;;;;2.35;100.00;101775.63;4188544;28;20673;-67
2023/12/16 05:05:03;;;;;;;183.70;35.70;;;;;;;2.37;100.00;101771.94;4187619;28;20229;-72
2023/12/16 05:07:29;;;;;;;197.97;35.83;;;;;;;2.41;100.00;101775.38;4185183;28;20238;-70
2023/12/16 05:09:57;;;;;;;174.47;33.97;;;;;;;2.39;100.00;101771.88;4181157;28;21358;-70
2023/12/16 05:12:23;;;;;;;177.33;33.97;;;;;;;2.40;100.00;101772.75;4204079;28;21138;-70
2023/12/16 05:15:03;;;;;;;190.07;34.87;;;;;;;2.41;100.00;101777.19;4189077;28;20281;-68
2023/12/16 05:17:30;;;;;;;207.50;36.90;;;;;;;2.37;100.00;101768.41;4188084;28;20242;-69
2023/12/16 05:19:56;;;;;;;181.07;35.73;;;;;;;2.40;100.00;101780.78;4179418;28;20234;-70
2023/12/16 05:22:23;;;;;;;191.03;35.40;;;;;;;2.41;100.00;101766.50;4188467;28;22510;-69
2023/12/16 05:24:50;;;;;;;211.70;39.43;;;;;;;2.36;100.00;101769.34;4186589;28;21591;-72
2023/12/16 05:27:17;;;;;;;233.57;39.23;;;;;;;2.38;100.00;101778.16;4185260;28;20240;-70
2023/12/16 05:29:43;;;;;;;224.73;37.77;;;;;;;2.34;100.00;101779.22;4187008;28;21211;-68
2023/12/16 05:32:10;;;;;;;192.03;37.17;;;;;;;2.42;100.00;101776.25;4188906;28;20233;-68
2023/12/16 05:34:36;;;;;;;202.17;36.20;;;;;;;2.47;100.00;101787.63;4188621;28;20238;-68
2023/12/16 05:37:03;;;;;;;188.80;36.33;;;;;;;2.47;100.00;101776.94;4185817;28;20313;-69
2023/12/16 05:39:30;;;;;;;205.50;36.67;;;;;;;2.47;100.00;101788.47;4182840;28;20235;-68
2023/12/16 05:41:56;;;;;;;175.70;34.77;;;;;;;2.49;100.00;101783.09;4189910;28;20237;-71
2023/12/16 05:44:23;;;;;;;171.20;33.43;;;;;;;2.52;100.00;101778.50;4188841;28;20244;-69
2023/12/16 05:46:51;;;;;;;184.33;36.27;;;;;;;2.56;100.00;101783.69;4186510;28;20237;-67
2023/12/16 05:49:17;;;;;;;225.60;37.57;;;;;;;2.44;100.00;101774.38;4180391;28;20237;-68
2023/12/16 05:51:44;;;;;;;211.17;36.43;;;;;;;2.44;100.00;101775.25;4188901;28;20256;-70
2023/12/16 05:54:11;;;;;;;192.20;36.97;;;;;;;2.48;100.00;101782.19;4194219;28;20231;-67
2023/12/16 05:56:37;;;;;;;193.90;37.93;;;;;;;2.48;100.00;101782.19;4180776;28;20254;-68
2023/12/16 05:59:04;;;;;;;185.90;34.73;;;;;;;2.51;100.00;101773.19;4184150;28;22961;-70
2023/12/16 06:01:31;;;;;;;198.33;36.93;;;;;;;2.47;100.00;101768.91;4186923;28;20629;-69
2023/12/16 06:03:57;;;;;;;179.37;35.77;;;;;;;2.49;100.00;101769.72;4178483;28;20698;-70
2023/12/16 06:06:24;;;;;;;178.93;36.50;;;;;;;2.68;100.00;101777.88;4179500;28;20318;-70
2023/12/16 06:08:53;;;;;;;183.60;36.40;;;;;;;2.57;100.00;101780.09;4172841;28;21760;-68
2023/12/16 06:11:22;;;;;;;216.93;39.03;;;;;;;2.54;100.00;101786.44;4185962;28;20434;-70
2023/12/16 06:13:52;;;;;;;191.63;35.80;;;;;;;2.55;100.00;101772.16;4180044;28;20240;-69
2023/12/16 06:16:19;;;;;;;186.80;36.47;;;;;;;2.52;100.00;101782.94;4183456;28;20234;-70
2023/12/16 06:18:48;;;;;;;176.30;36.27;;;;;;;2.58;100.00;101790.72;4186236;28;20238;-67
2023/12/16 06:21:15;;;;;;;216.77;39.17;;;;;;;2.58;100.00;101792.53;4180453;28;20348;-71
2023/12/16 06:23:42;;;;;;;200.40;37.33;;;;;;;2.56;100.00;101795.28;4182685;28;20232;-71
2023/12/16 06:26:09;;;;;;;210.33;36.73;;;;;;;2.58;100.00;101795.19;4185477;28;21898;-72
2023/12/16 06:28:36;;;;;;;234.33;41.20;;;;;;;2.59;100.00;101794.28;4185096;28;20238;-66
2023/12/16 06:31:02;;;;;;;218.23;39.20;;;;;;;2.59;100.00;101799.63;4182420;28;20277;-69
2023/12/16 06:33:29;;;;;;;213.67;38.20;;;;;;;2.56;100.00;101800.63;4192726;28;20241;-68
2023/12/16 06:35:56;;;;;;;223.33;40.97;;;;;;;2.59;100.00;101797.81;4168888;28;20295;-68
2023/12/16 06:38:23;;;;;;;218.70;37.77;;;;;;;2.59;100.00;101804.97;4181364;28;20234;-69
2023/12/16 06:40:50;;;;;;;190.07;34.63;;;;;;;2.61;100.00;101798.63;4185936;28;21766;-70
2023/12/16 06:43:17;;;;;;;183.03;36.70;;;;;;;2.64;100.00;101811.88;4184779;28;20237;-69
2023/12/16 06:45:43;;;;;;;211.90;39.37;;;;;;;2.66;100.00;101826.03;4175829;28;21731;-67
2023/12/16 06:48:10;;;;;;;212.07;39.33;;;;;;;2.67;100.00;101822.44;4187080;28;20360;-69
2023/12/16 06:50:38;;;;;;;181.27;37.77;;;;;;;2.75;100.00;101813.22;4189588;28;20248;-70
2023/12/16 06:53:04;;;;;;;207.20;38.03;;;;;;;2.69;100.00;101811.66;4185707;28;20268;-69
2023/12/16 06:55:31;;;;;;;215.80;39.33;;;;;;;2.68;100.00;101810.81;4178901;28;20229;-70
2023/12/16 06:57:58;;;;;;;203.40;37.77;;;;;;;2.70;100.00;101805.38;4183386;28;20450;-67
2023/12/16 07:00:24;;;;;;;201.30;37.33;;;;;;;2.72;100.00;101810.69;4186688;28;20234;-68
2023/12/16 07:02:52;;;;;;;202.23;39.23;;;;;;;2.72;100.00;101816.03;4178783;28;20236;-69
2023/12/16 07:05:18;;;;;;;173.83;34.93;;;;;;;2.79;100.00;101817.53;4185252;28;20245;-69
2023/12/16 07:07:45;;;;;;;220.50;39.20;;;;;;;2.75;100.00;101822.13;4188765;28;20411;-71
2023/12/16 07:10:12;;;;;;;181.43;36.43;;;;;;;2.88;100.00;101817.13;4202443;28;20236;-69
2023/12/16 07:12:39;;;;;;;205.60;38.77;;;;;;;2.86;100.00;101819.03;4187018;28;20243;-69
2023/12/16 07:15:07;;;;;;;184.03;36.73;;;;;;;2.83;100.00;101817.31;4197513;28;20551;-70
2023/12/16 07:17:34;;;;;;;169.63;36.93;;;;;;;2.88;100.00;101826.97;4180934;28;21365;-68
2023/12/16 07:20:01;;;;;;;180.90;38.10;;;;;;;2.81;100.00;101819.19;4187721;28;20273;-68
2023/12/16 07:22:29;;;;;;;169.97;35.60;;;;;;;2.93;100.00;101825.84;4192105;28;22811;-70
2023/12/16 07:24:57;;;;;;;172.37;37.30;;;;;;;2.94;100.00;101816.91;4183764;28;20237;-67
2023/12/16 07:27:27;;;;;;;170.77;35.33;;;;;;;2.91;100.00;101822.34;4177485;28;20644;-68
2023/12/16 07:29:54;;;;;;;170.17;35.50;;;;;;;2.90;100.00;101827.78;4191642;28;20245;-69
2023/12/16 07:32:20;;;;;;;195.70;37.03;;;;;;;2.93;100.00;101827.63;4194638;28;20319;-69
2023/12/16 07:34:49;;;;;;;151.97;33.53;;;;;;;2.94;100.00;101824.91;4190270;28;20300;-70
2023/12/16 07:37:17;;;;;;;189.90;37.17;;;;;;;2.93;100.00;101827.63;4197231;28;20308;-69
2023/12/16 07:39:43;;;;;;;165.97;36.53;;;;;;;2.92;100.00;101823.22;4185879;28;21157;-70
2023/12/16 07:42:11;;;;;;;151.37;35.17;;;;;;;2.98;100.00;101820.31;4206217;28;20233;-71
2023/12/16 07:44:38;;;;;;;180.70;35.57;;;;;;;2.95;100.00;101823.97;4205503;28;20254;-72
2023/12/16 07:47:05;;;;;;;170.03;36.00;;;;;;;3.04;100.00;101817.38;4223889;28;20238;-71
2023/12/16 07:49:31;;;;;;;183.30;37.73;;;;;;;3.01;100.00;101820.16;4209431;28;20236;-67
2023/12/16 07:52:00;;;;;;;170.10;35.43;;;;;;;3.04;100.00;101828.06;4183827;28;20233;-67
2023/12/16 07:54:27;;;;;;;157.27;35.93;;;;;;;3.06;100.00;101825.31;4204562;28;20607;-68
2023/12/16 07:56:54;;;;;;;169.23;36.50;;;;;;;3.06;100.00;101834.22;4223548;28;20241;-66
2023/12/16 07:59:21;;;;;;;170.17;34.67;;;;;;;3.14;100.00;101821.38;4178384;28;20229;-66
2023/12/16 08:01:50;;;;;;;137.50;32.73;;;;;;;3.15;100.00;101828.47;4192314;28;20817;-65
2023/12/16 08:04:17;;;;;;;143.73;33.60;;;;;;;3.21;100.00;101834.53;4190359;28;20298;-67
2023/12/16 08:06:44;;;;;;;168.47;33.83;;;;;;;3.18;100.00;101838.19;4218238;28;21556;-65
2023/12/16 08:09:12;;;;;;;149.97;34.70;;;;;;;3.17;100.00;101839.13;4187851;28;21752;-68
2023/12/16 08:11:38;;;;;;;143.13;33.17;;;;;;;3.21;100.00;101840.75;4188173;28;20327;-67
2023/12/16 08:14:06;;;;;;;153.00;34.47;;;;;;;3.17;100.00;101844.50;4186144;28;20295;-65
2023/12/16 08:16:35;;;;;;;151.03;35.43;;;;;;;3.19;100.00;101857.78;4197153;28;20281;-66
2023/12/16 08:19:02;;;;;;;146.03;34.00;;;;;;;3.29;100.00;101864.47;4193054;28;20238;-68
2023/12/16 08:21:29;;;;;;;141.20;31.90;;;;;;;3.24;100.00;101862.03;4183165;28;25319;-68
2023/12/16 08:23:56;;;;;;;130.87;30.90;;;;;;;3.26;100.00;101852.09;4186120;28;21796;-65
2023/12/16 08:26:22;;;;;;;115.93;30.97;;;;;;;3.27;100.00;101847.66;4181580;28;22574;-66
2023/12/16 08:28:50;;;;;;;127.20;29.93;;;;;;;3.24;100.00;101847.75;4179052;28;20241;-66
2023/12/16 08:31:17;;;;;;;104.43;27.30;;;;;;;3.29;100.00;101851.09;4185095;28;20992;-67
2023/12/16 08:33:44;;;;;;;120.63;27.77;;;;;;;3.28;100.00;101860.09;4200155;28;20249;-68
2023/12/16 08:36:11;;;;;;;102.93;25.83;;;;;;;3.37;100.00;101859.69;4186560;28;20257;-67
2023/12/16 08:38:39;;;;;;;101.23;27.93;;;;;;;3.42;100.00;101860.38;4174127;28;20280;-67
2023/12/16 08:41:08;;;;;;;103.33;27.20;;;;;;;3.42;100.00;101854.13;4189103;28;20225;-65
2023/12/16 08:43:35;;;;;;;88.23;25.40;;;;;;;3.52;100.00;101860.84;4203488;28;20242;-67
2023/12/16 08:46:05;;;;;;;89.60;24.13;;;;;;;3.61;100.00;101856.88;4189790;28;20233;-67
2023/12/16 08:48:32;;;;;;;86.70;23.60;;;;;;;3.69;100.00;101856.56;4183177;28;21908;-66
2023/12/16 08:50:59;;;;;;;89.73;23.70;;;;;;;3.75;100.00;101856.28;4192499;28;21756;-68
2023/12/16 08:53:26;;;;;;;90.07;24.07;;;;;;;3.93;100.00;101863.47;4209007;28;20233;-66
2023/12/16 08:55:53;;;;;;;77.37;22.27;;;;;;;4.06;100.00;101865.63;4184204;28;20303;-65
2023/12/16 08:58:20;;;;;;;84.80;23.60;;;;;;;4.04;100.00;101862.13;4184165;28;20233;-65
2023/12/16 09:00:48;;;;;;;79.30;23.83;;;;;;;4.15;100.00;101862.53;4193885;28;21593;-69
2023/12/16 09:03:15;;;;;;;77.93;23.87;;;;;;;4.07;100.00;101870.03;4187822;28;20240;-67
2023/12/16 09:05:42;;;;;;;74.10;21.80;;;;;;;4.07;100.00;101872.72;4194629;28;20325;-66
2023/12/16 09:08:09;;;;;;;70.17;21.53;;;;;;;4.07;100.00;101867.38;4192239;28;20237;-66
2023/12/16 09:10:36;;;;;;;72.17;22.47;;;;;;;3.94;100.00;101864.38;4195599;28;21200;-65
2023/12/16 09:13:03;;;;;;;68.70;24.00;;;;;;;3.85;100.00;101860.31;4185293;28;21197;-70
2023/12/16 09:15:30;;;;;;;79.00;24.00;;;;;;;3.89;100.00;101866.38;4189851;28;23351;-66
2023/12/16 09:17:57;;;;;;;70.60;22.17;;;;;;;3.86;100.00;101870.06;4183113;28;20241;-66
2023/12/16 09:20:24;;;;;;;78.43;23.47;;;;;;;3.85;100.00;101872.81;4192104;28;20234;-69
2023/12/16 09:22:51;;;;;;;76.60;26.43;;;;;;;3.82;100.00;101879.16;4192712;28;22190;-69
2023/12/16 09:25:18;;;;;;;81.90;25.90;;;;;;;3.85;100.00;101879.06;4179798;28;20233;-68
2023/12/16 09:27:45;;;;;;;69.10;22.07;;;;;;;3.88;100.00;101884.25;4175935;28;20842;-67
2023/12/16 09:30:12;;;;;;;71.73;23.17;;;;;;;3.90;100.00;101878.81;4185943;28;20598;-69
2023/12/16 09:32:44;;;;;;;68.67;22.70;;;;;;;3.96;100.00;101876.75;4191616;28;20233;-68
2023/12/16 09:35:11;;;;;;;66.27;22.30;;;;;;;4.01;100.00;101883.69;4176435;28;20326;-68
2023/12/16 09:37:38;;;;;;;69.50;22.03;;;;;;;3.98;100.00;101882.03;4195664;28;20347;-68
2023/12/16 09:40:05;;;;;;;63.10;20.63;;;;;;;4.06;100.00;101882.56;4205631;28;22143;-70
2023/12/16 09:42:38;;;;;;;66.73;19.47;;;;;;;4.08;100.00;101885.16;4196200;28;20337;-69
2023/12/16 09:45:05;;;;;;;59.60;20.03;;;;;;;4.05;100.00;101879.94;4184915;28;22227;-68
2023/12/16 09:47:32;;;;;;;53.13;17.73;;;;;;;4.17;100.00;101874.03;4206852;28;20241;-68
2023/12/16 09:50:02;;;;;;;54.13;17.13;;;;;;;4.18;100.00;101875.75;4200869;28;23281;-64
2023/12/16 09:52:29;;;;;;;61.27;17.70;;;;;;;4.13;100.00;101885.84;4190722;28;20270;-69
2023/12/16 09:54:56;;;;;;;50.97;15.80;;;;;;;4.16;100.00;101874.97;4190490;28;20841;-67
2023/12/16 09:57:24;;;;;;;51.80;16.33;;;;;;;4.21;100.00;101872.06;4216384;28;20768;-69
2023/12/16 09:59:54;;;;;;;52.47;16.80;;;;;;;4.16;100.00;101874.97;4186119;28;20230;-69
2023/12/16 10:02:27;;;;;;;55.60;16.63;;;;;;;4.21;100.00;101869.38;4198014;28;21713;-65
2023/12/16 10:04:58;;;;;;;51.90;16.93;;;;;;;4.21;100.00;101874.75;4180037;28;26565;-67
2023/12/16 10:07:28;;;;;;;50.20;15.33;;;;;;;4.38;100.00;101874.84;4175737;28;20737;-65
2023/12/16 10:09:55;;;;;;;49.40;15.40;;;;;;;4.35;100.00;101876.81;4184673;28;20312;-66
2023/12/16 10:12:22;;;;;;;46.93;15.63;;;;;;;4.30;100.00;101878.84;4177908;28;20561;-70
2023/12/16 10:14:50;;;;;;;40.97;15.43;;;;;;;4.34;100.00;101872.38;4183844;28;20237;-69
2023/12/16 10:17:20;;;;;;;50.07;13.97;;;;;;;4.36;100.00;101870.50;4191562;28;20243;-68
2023/12/16 10:19:50;;;;;;;40.43;14.53;;;;;;;4.42;100.00;101864.84;4195513;28;20335;-68
2023/12/16 10:22:18;;;;;;;47.13;15.83;;;;;;;4.35;100.00;101858.03;4196684;28;20672;-68
2023/12/16 10:24:46;;;;;;;42.67;15.57;;;;;;;4.48;100.00;101851.16;4182626;28;20238;-66
2023/12/16 10:27:13;;;;;;;51.33;16.70;;;;;;;4.43;100.00;101856.72;4191294;28;20555;-68
2023/12/16 10:29:41;;;;;;;45.30;14.57;;;;;;;4.52;100.00;101857.22;4180021;28;20690;-67
2023/12/16 10:32:28;;;;;;;47.20;14.93;;;;;;;4.52;100.00;101854.53;4186584;28;20252;-66
2023/12/16 10:34:56;;;;;;;52.93;15.40;;;;;;;4.60;100.00;101855.94;4190144;28;22117;-72
2023/12/16 10:37:23;;;;;;;49.97;15.37;;;;;;;4.63;100.00;101856.72;4182279;28;20229;-68
2023/12/16 10:39:50;;;;;;;43.10;14.43;;;;;;;4.79;100.00;101849.66;4202004;28;21719;-70
2023/12/16 10:42:17;;;;;;;44.17;16.47;;;;;;;4.68;100.00;101849.34;4190170;28;25544;-66
2023/12/16 10:44:44;;;;;;;45.22;17.98;;;;;;;4.70;100.00;101853.69;4187395;28;22158;-67
2023/12/16 10:47:17;;;;;;;46.23;16.10;;;;;;;4.68;100.00;101855.56;4182631;28;20303;-71
2023/12/16 10:49:45;;;;;;;50.30;17.77;;;;;;;4.76;100.00;101845.31;4184930;28;20424;-66
2023/12/16 10:52:13;;;;;;;52.47;18.27;;;;;;;4.65;100.00;101838.75;4186017;28;20242;-67
2023/12/16 10:54:42;;;;;;;55.70;19.17;;;;;;;4.58;100.00;101840.84;4172488;28;20350;-65
2023/12/16 10:57:24;;;;;;;48.23;18.77;;;;;;;4.83;100.00;101834.28;4192604;28;21596;-56
2023/12/16 11:00:03;;;;;;;49.40;18.43;;;;;;;5.00;100.00;101831.66;4192590;28;21954;-72
2023/12/16 11:02:31;;;;;;;60.37;19.60;;;;;;;4.90;100.00;101823.19;4181390;28;20284;-72
2023/12/16 11:05:36;;;;;;;57.97;18.80;;;;;;;5.01;100.00;101821.75;4186547;28;20334;-73